Time;durP1;ratioP1;P1;durP2;ratioP2;P2;SDS_P1;SDS_P2;PMS_P1;PMS_P2;Temp;Humidity;BMP_temperature;BMP_pressure;BME280_temperature;BME280_humidity;BME280_pressure;Samples;Min_cycle;Max_cycle;Signal;HPM_P1;HPM_P2
2024/01/24 00:01:33;;;;;;;;;;;8.00;99.90;;;;;;5058393;28;20362;-62
2024/01/24 00:03:59;;;;;;;;;;;8.00;99.90;;;;;;5023623;28;19955;-62
2024/01/24 00:06:25;;;;;;;;;;;8.00;99.90;;;;;;5023078;28;20035;-62
2024/01/24 00:08:51;;;;;;;;;;;8.10;99.90;;;;;;5038241;28;19957;-62
2024/01/24 00:11:17;;;;;;;;;;;8.10;99.90;;;;;;5022760;28;20330;-62
2024/01/24 00:13:43;;;;;;;;;;;8.10;99.90;;;;;;5023402;28;20030;-62
2024/01/24 00:16:08;;;;;;;;;;;8.10;99.90;;;;;;5023059;28;19913;-62
2024/01/24 00:18:34;;;;;;;;;;;8.10;99.90;;;;;;5020365;28;20349;-62
2024/01/24 00:21:00;;;;;;;;;;;8.10;99.90;;;;;;5027567;28;20362;-62
2024/01/24 00:23:25;;;;;;;;;;;8.10;99.90;;;;;;5023191;28;20029;-62
2024/01/24 00:25:51;;;;;;;;;;;8.20;99.90;;;;;;5022947;28;19913;-62
2024/01/24 00:28:17;;;;;;;;;;;8.20;99.90;;;;;;5022968;28;19929;-62
2024/01/24 00:30:45;;;;;;;;;;;8.20;99.90;;;;;;5022431;28;19928;-62
2024/01/24 00:33:11;;;;;;;;;;;8.20;99.90;;;;;;5036847;28;19915;-62
2024/01/24 00:35:36;;;;;;;;;;;8.20;99.90;;;;;;5031478;28;19977;-62
2024/01/24 00:38:02;;;;;;;;;;;8.30;99.90;;;;;;5043779;28;19910;-64
2024/01/24 00:40:27;;;;;;;;;;;8.30;99.90;;;;;;5056055;28;19911;-62
2024/01/24 00:42:53;;;;;;;;;;;8.30;99.90;;;;;;5022811;28;19917;-62
2024/01/24 00:45:19;;;;;;;;;;;8.30;99.90;;;;;;5029838;28;20061;-62
2024/01/24 00:47:44;;;;;;;;;;;8.40;99.90;;;;;;5022730;28;19989;-62
2024/01/24 00:50:10;;;;;;;;;;;8.40;99.90;;;;;;5022348;28;19927;-62
2024/01/24 00:52:36;;;;;;;;;;;8.40;99.90;;;;;;5021702;28;19919;-62
2024/01/24 00:55:01;;;;;;;;;;;8.40;99.90;;;;;;5036884;28;19920;-62
2024/01/24 00:57:27;;;;;;;;;;;8.50;99.90;;;;;;5032049;28;19909;-62
2024/01/24 00:59:52;;;;;;;;;;;8.40;99.90;;;;;;5022218;28;20016;-62
2024/01/24 01:02:18;;;;;;;;;;;8.40;99.90;;;;;;5021830;28;20584;-62
2024/01/24 01:04:43;;;;;;;;;;;8.50;99.90;;;;;;5024316;28;19924;-62
2024/01/24 01:07:09;;;;;;;;;;;8.50;99.90;;;;;;5022076;28;20402;-62
2024/01/24 01:09:35;;;;;;;;;;;8.50;99.90;;;;;;5071008;28;19918;-62
2024/01/24 01:12:01;;;;;;;;;;;8.50;99.90;;;;;;5027740;28;19956;-62
2024/01/24 01:14:27;;;;;;;;;;;8.50;99.90;;;;;;5054813;28;19909;-62
2024/01/24 01:16:53;;;;;;;;;;;8.60;99.90;;;;;;5064568;28;19909;-62
2024/01/24 01:19:19;;;;;;;;;;;8.60;99.90;;;;;;5033339;28;19987;-62
2024/01/24 01:21:44;;;;;;;;;;;8.60;99.90;;;;;;5034494;28;19974;-62
2024/01/24 01:24:10;;;;;;;;;;;8.60;99.90;;;;;;5021968;28;20266;-62
2024/01/24 01:26:35;;;;;;;;;;;8.70;99.90;;;;;;5044922;28;19917;-62
2024/01/24 01:29:01;;;;;;;;;;;8.70;99.90;;;;;;5027156;28;19955;-62
2024/01/24 01:31:27;;;;;;;;;;;8.70;99.90;;;;;;5028874;28;19913;-62
2024/01/24 01:33:53;;;;;;;;;;;8.70;99.90;;;;;;5022554;28;19909;-62
2024/01/24 01:36:19;;;;;;;;;;;8.70;99.90;;;;;;5055161;28;19912;-62
2024/01/24 01:38:44;;;;;;;;;;;8.70;99.90;;;;;;5034002;28;19930;-62
2024/01/24 01:41:10;;;;;;;;;;;8.80;99.90;;;;;;5038632;28;20356;-62
2024/01/24 01:43:35;;;;;;;;;;;8.80;99.90;;;;;;5021426;28;19945;-62
2024/01/24 01:46:05;;;;;;;;;;;8.80;99.90;;;;;;5021553;28;19920;-62
2024/01/24 01:48:31;;;;;;;;;;;8.80;99.90;;;;;;5021342;28;20627;-62
2024/01/24 01:50:56;;;;;;;;;;;8.80;99.90;;;;;;5020850;28;19921;-62
2024/01/24 01:53:22;;;;;;;;;;;8.90;99.90;;;;;;5021112;28;19917;-62
2024/01/24 01:55:48;;;;;;;;;;;8.90;99.90;;;;;;5021023;28;20385;-62
2024/01/24 01:58:15;;;;;;;;;;;8.90;99.90;;;;;;5019380;28;19918;-62
2024/01/24 02:00:41;;;;;;;;;;;8.90;99.90;;;;;;5015084;28;20601;-62
2024/01/24 02:03:06;;;;;;;;;;;8.90;99.90;;;;;;5038465;28;19913;-62
2024/01/24 02:05:32;;;;;;;;;;;8.90;99.90;;;;;;5041514;28;19909;-62
2024/01/24 02:07:58;;;;;;;;;;;9.00;99.90;;;;;;5078415;27;20448;-62
2024/01/24 02:10:23;;;;;;;;;;;9.00;99.90;;;;;;5024902;28;20023;-62
2024/01/24 02:12:49;;;;;;;;;;;9.00;99.90;;;;;;5036824;28;19911;-62
2024/01/24 02:15:15;;;;;;;;;;;9.00;99.90;;;;;;5035826;28;19992;-62
2024/01/24 02:17:40;;;;;;;;;;;9.00;99.90;;;;;;5023815;28;20005;-62
2024/01/24 02:20:08;;;;;;;;;;;9.10;99.90;;;;;;5022181;28;19970;-61
2024/01/24 02:22:33;;;;;;;;;;;9.10;99.90;;;;;;5044409;28;19909;-62
2024/01/24 02:24:59;;;;;;;;;;;9.10;99.90;;;;;;5050532;28;20011;-61
2024/01/24 02:27:24;;;;;;;;;;;9.10;99.90;;;;;;5033866;28;19909;-61
2024/01/24 02:29:50;;;;;;;;;;;9.10;99.90;;;;;;5032349;28;19921;-61
2024/01/24 02:32:15;;;;;;;;;;;9.10;99.90;;;;;;5038938;28;19924;-61
2024/01/24 02:34:41;;;;;;;;;;;9.10;99.90;;;;;;5011549;28;20365;-62
2024/01/24 02:37:07;;;;;;;;;;;9.10;99.90;;;;;;5024812;28;20357;-62
2024/01/24 02:39:32;;;;;;;;;;;9.10;99.90;;;;;;5037535;28;19930;-62
2024/01/24 02:41:58;;;;;;;;;;;9.20;99.90;;;;;;5046080;28;19909;-62
2024/01/24 02:44:23;;;;;;;;;;;9.20;99.90;;;;;;5034684;28;20111;-61
2024/01/24 02:46:49;;;;;;;;;;;9.20;99.90;;;;;;5067898;27;19987;-61
2024/01/24 02:49:14;;;;;;;;;;;9.30;99.90;;;;;;5025451;28;19909;-62
2024/01/24 02:51:40;;;;;;;;;;;9.30;99.90;;;;;;5031899;28;19949;-62
2024/01/24 02:54:06;;;;;;;;;;;9.30;99.90;;;;;;5024266;28;20602;-62
2024/01/24 02:56:33;;;;;;;;;;;9.30;99.90;;;;;;5024230;28;19999;-62
2024/01/24 02:58:59;;;;;;;;;;;9.30;99.90;;;;;;5035494;28;19920;-62
2024/01/24 03:01:25;;;;;;;;;;;9.30;99.90;;;;;;5035296;28;19910;-61
2024/01/24 03:03:50;;;;;;;;;;;9.30;99.90;;;;;;5045928;28;19940;-62
2024/01/24 03:06:16;;;;;;;;;;;9.30;99.90;;;;;;5024547;28;19966;-61
2024/01/24 03:08:48;;;;;;;;;;;9.40;99.90;;;;;;5024713;28;19967;-62
2024/01/24 03:11:14;;;;;;;;;;;9.40;99.90;;;;;;5024188;28;19919;-62
2024/01/24 03:13:39;;;;;;;;;;;9.40;99.90;;;;;;5023987;28;20047;-62
2024/01/24 03:16:05;;;;;;;;;;;9.40;99.90;;;;;;5024054;28;19974;-61
2024/01/24 03:18:30;;;;;;;;;;;9.40;99.90;;;;;;5008894;28;19918;-61
2024/01/24 03:20:56;;;;;;;;;;;9.50;99.90;;;;;;5023810;28;19960;-61
2024/01/24 03:23:24;;;;;;;;;;;9.40;99.90;;;;;;5024152;28;19923;-62
2024/01/24 03:25:50;;;;;;;;;;;9.50;99.90;;;;;;5023213;28;19917;-62
2024/01/24 03:28:15;;;;;;;;;;;9.50;99.90;;;;;;5024165;28;19917;-62
2024/01/24 03:30:41;;;;;;;;;;;9.50;99.90;;;;;;5036754;28;19970;-61
2024/01/24 03:33:06;;;;;;;;;;;9.50;99.90;;;;;;5026175;28;19913;-62
2024/01/24 03:35:32;;;;;;;;;;;9.60;99.90;;;;;;5027727;28;19909;-61
2024/01/24 03:37:57;;;;;;;;;;;9.50;99.90;;;;;;5049463;28;19922;-62
2024/01/24 03:40:23;;;;;;;;;;;9.60;99.90;;;;;;5028955;28;19954;-61
2024/01/24 03:42:48;;;;;;;;;;;9.60;99.90;;;;;;5052272;28;20313;-61
2024/01/24 03:45:14;;;;;;;;;;;9.60;99.90;;;;;;5023911;28;19919;-62
2024/01/24 03:47:39;;;;;;;;;;;9.60;99.90;;;;;;5023630;28;19920;-61
2024/01/24 03:50:05;;;;;;;;;;;9.60;99.90;;;;;;5006857;27;19913;-62
2024/01/24 03:52:30;;;;;;;;;;;9.60;99.90;;;;;;5025205;27;20393;-61
2024/01/24 03:54:56;;;;;;;;;;;9.60;99.90;;;;;;5031555;27;19921;-61
2024/01/24 03:57:21;;;;;;;;;;;9.60;99.90;;;;;;5031527;27;20009;-61
2024/01/24 03:59:47;;;;;;;;;;;9.60;99.90;;;;;;5028894;28;20344;-62
2024/01/24 04:02:12;;;;;;;;;;;9.70;99.90;;;;;;5028504;28;19971;-61
2024/01/24 04:04:38;;;;;;;;;;;9.70;99.90;;;;;;5028100;28;19913;-61
2024/01/24 04:07:03;;;;;;;;;;;9.60;99.90;;;;;;5025708;28;19920;-61
2024/01/24 04:09:29;;;;;;;;;;;9.60;99.90;;;;;;5023101;28;20001;-61
2024/01/24 04:11:54;;;;;;;;;;;9.60;99.90;;;;;;5024057;28;19966;-61
2024/01/24 04:14:20;;;;;;;;;;;9.60;99.90;;;;;;5039032;28;19911;-61
2024/01/24 04:16:45;;;;;;;;;;;9.60;99.90;;;;;;5058189;28;20543;-61
2024/01/24 04:19:11;;;;;;;;;;;9.60;99.90;;;;;;5023178;28;19913;-61
2024/01/24 04:21:43;;;;;;;;;;;9.60;99.90;;;;;;5044462;28;21065;-61
2024/01/24 04:24:08;;;;;;;;;;;9.60;99.90;;;;;;5050937;28;20323;-61
2024/01/24 04:26:34;;;;;;;;;;;9.60;99.90;;;;;;5023529;28;19913;-62
2024/01/24 04:28:59;;;;;;;;;;;9.60;99.90;;;;;;5005353;28;19966;-62
2024/01/24 04:31:25;;;;;;;;;;;9.70;99.90;;;;;;5037995;28;20138;-61
2024/01/24 04:33:50;;;;;;;;;;;9.70;99.90;;;;;;5023694;28;19913;-61
2024/01/24 04:36:16;;;;;;;;;;;9.60;99.90;;;;;;5023656;28;19913;-61
2024/01/24 04:38:43;;;;;;;;;;;9.60;99.90;;;;;;5023002;28;19997;-61
2024/01/24 04:41:09;;;;;;;;;;;9.60;99.90;;;;;;5023046;28;19914;-61
2024/01/24 04:43:35;;;;;;;;;;;9.60;99.90;;;;;;5023035;28;20032;-61
2024/01/24 04:46:00;;;;;;;;;;;9.60;99.90;;;;;;5023334;28;19913;-61
2024/01/24 04:48:26;;;;;;;;;;;9.60;99.90;;;;;;5023166;28;20013;-61
2024/01/24 04:50:51;;;;;;;;;;;9.60;99.90;;;;;;5023039;28;19990;-62
2024/01/24 04:53:17;;;;;;;;;;;9.70;99.90;;;;;;5024360;28;19917;-61
2024/01/24 04:55:42;;;;;;;;;;;9.70;99.90;;;;;;5029370;28;20397;-61
2024/01/24 04:58:08;;;;;;;;;;;9.70;99.90;;;;;;5023097;28;19913;-62
2024/01/24 05:00:33;;;;;;;;;;;9.70;99.90;;;;;;5022462;28;19913;-61
2024/01/24 05:03:00;;;;;;;;;;;9.70;99.90;;;;;;5022777;28;19917;-61
2024/01/24 05:05:25;;;;;;;;;;;9.70;99.90;;;;;;5022867;28;19956;-62
2024/01/24 05:07:51;;;;;;;;;;;9.70;99.90;;;;;;5023133;28;19956;-61
2024/01/24 05:10:16;;;;;;;;;;;9.60;99.90;;;;;;5022706;28;20020;-61
2024/01/24 05:12:42;;;;;;;;;;;9.60;99.90;;;;;;5022421;28;19913;-61
2024/01/24 05:15:08;;;;;;;;;;;9.60;99.90;;;;;;5022890;28;19914;-61
2024/01/24 05:17:33;;;;;;;;;;;9.60;99.90;;;;;;5022574;28;19975;-62
2024/01/24 05:19:59;;;;;;;;;;;9.60;99.90;;;;;;5019616;28;19913;-61
2024/01/24 05:22:24;;;;;;;;;;;9.60;99.90;;;;;;5022664;28;20465;-61
2024/01/24 05:24:50;;;;;;;;;;;9.70;99.90;;;;;;5022751;28;19913;-62
2024/01/24 05:27:16;;;;;;;;;;;9.60;99.90;;;;;;5022746;28;19947;-62
2024/01/24 05:29:45;;;;;;;;;;;9.70;99.90;;;;;;5022178;28;20389;-61
2024/01/24 05:32:10;;;;;;;;;;;9.70;99.90;;;;;;5022433;28;19917;-61
2024/01/24 05:34:36;;;;;;;;;;;9.70;99.90;;;;;;5022037;28;20571;-61
2024/01/24 05:37:01;;;;;;;;;;;9.60;99.90;;;;;;5022710;28;19917;-61
2024/01/24 05:39:27;;;;;;;;;;;9.60;99.90;;;;;;5022464;28;19992;-61
2024/01/24 05:41:52;;;;;;;;;;;9.60;99.90;;;;;;5026221;28;19966;-61
2024/01/24 05:44:18;;;;;;;;;;;9.60;99.90;;;;;;5026023;28;19913;-61
2024/01/24 05:46:43;;;;;;;;;;;9.60;99.90;;;;;;5025969;28;19913;-61
2024/01/24 05:49:09;;;;;;;;;;;9.60;99.90;;;;;;5025869;28;20352;-61
2024/01/24 05:51:34;;;;;;;;;;;9.60;99.90;;;;;;5025479;28;19917;-61
2024/01/24 05:54:00;;;;;;;;;;;9.60;99.90;;;;;;5025766;28;19913;-62
2024/01/24 05:56:25;;;;;;;;;;;9.60;99.90;;;;;;5017689;28;20460;-62
2024/01/24 05:58:51;;;;;;;;;;;9.60;99.90;;;;;;5021356;28;19920;-61
2024/01/24 06:01:16;;;;;;;;;;;9.60;99.90;;;;;;5025678;28;19948;-61
2024/01/24 06:03:42;;;;;;;;;;;9.60;99.90;;;;;;5024363;28;20358;-62
2024/01/24 06:06:08;;;;;;;;;;;9.60;99.90;;;;;;5025588;28;20027;-62
2024/01/24 06:08:33;;;;;;;;;;;9.60;99.90;;;;;;5025367;28;19913;-61
2024/01/24 06:10:59;;;;;;;;;;;9.60;99.90;;;;;;5025058;28;19924;-61
2024/01/24 06:13:25;;;;;;;;;;;9.60;99.90;;;;;;5025269;28;19971;-61
2024/01/24 06:15:51;;;;;;;;;;;9.60;99.90;;;;;;5025424;28;19920;-62
2024/01/24 06:18:17;;;;;;;;;;;9.60;99.90;;;;;;5022449;28;20031;-61
2024/01/24 06:20:42;;;;;;;;;;;9.60;99.90;;;;;;5024546;28;19944;-61
2024/01/24 06:23:08;;;;;;;;;;;9.60;99.90;;;;;;5033871;28;20523;-61
2024/01/24 06:25:33;;;;;;;;;;;9.60;99.90;;;;;;5006984;28;20285;-61
2024/01/24 06:27:59;;;;;;;;;;;9.60;99.90;;;;;;5030920;28;19921;-62
2024/01/24 06:30:24;;;;;;;;;;;9.50;99.90;;;;;;5027382;28;20341;-61
2024/01/24 06:32:51;;;;;;;;;;;9.50;99.90;;;;;;5025218;28;20033;-62
2024/01/24 06:35:17;;;;;;;;;;;9.50;99.90;;;;;;5025245;28;19932;-62
2024/01/24 06:37:42;;;;;;;;;;;9.60;99.90;;;;;;5025048;28;19921;-62
2024/01/24 06:40:09;;;;;;;;;;;9.50;99.90;;;;;;5024920;28;19962;-61
2024/01/24 06:42:35;;;;;;;;;;;9.60;99.90;;;;;;5041007;28;19909;-62
2024/01/24 06:45:01;;;;;;;;;;;9.50;99.90;;;;;;5038947;28;20016;-61
2024/01/24 06:47:27;;;;;;;;;;;9.60;99.90;;;;;;5035430;28;19913;-62
2024/01/24 06:49:52;;;;;;;;;;;9.50;99.90;;;;;;5024798;28;19909;-62
2024/01/24 06:52:18;;;;;;;;;;;9.50;99.90;;;;;;5024364;28;19923;-61
2024/01/24 06:54:43;;;;;;;;;;;9.50;99.90;;;;;;5024451;28;19924;-61
2024/01/24 06:57:09;;;;;;;;;;;9.50;99.90;;;;;;5025990;28;19913;-61
2024/01/24 06:59:34;;;;;;;;;;;9.50;99.90;;;;;;5024737;28;20511;-61
2024/01/24 07:02:00;;;;;;;;;;;9.50;99.90;;;;;;5024646;28;19918;-61
2024/01/24 07:04:25;;;;;;;;;;;9.50;99.90;;;;;;5024660;28;19922;-61
2024/01/24 07:06:51;;;;;;;;;;;9.50;99.90;;;;;;5025169;28;19999;-62
2024/01/24 07:09:17;;;;;;;;;;;9.50;99.90;;;;;;5024337;28;19921;-61
2024/01/24 07:11:42;;;;;;;;;;;9.50;99.90;;;;;;5023222;28;19913;-61
2024/01/24 07:14:08;;;;;;;;;;;9.50;99.90;;;;;;5023927;28;20315;-61
2024/01/24 07:16:33;;;;;;;;;;;9.50;99.90;;;;;;5024306;28;19920;-61
2024/01/24 07:18:59;;;;;;;;;;;9.50;99.90;;;;;;5021007;28;19920;-61
2024/01/24 07:21:25;;;;;;;;;;;9.50;99.90;;;;;;5024444;28;19944;-61
2024/01/24 07:23:50;;;;;;;;;;;9.50;99.90;;;;;;5024570;28;20000;-61
2024/01/24 07:26:16;;;;;;;;;;;9.50;99.90;;;;;;5052229;28;20021;-61
2024/01/24 07:28:42;;;;;;;;;;;9.50;99.90;;;;;;5023961;28;20235;-61
2024/01/24 07:31:07;;;;;;;;;;;9.50;99.90;;;;;;5023990;28;19921;-62
2024/01/24 07:33:33;;;;;;;;;;;9.50;99.90;;;;;;5023974;28;19993;-62
2024/01/24 07:35:58;;;;;;;;;;;9.40;99.90;;;;;;5024171;28;19986;-62
2024/01/24 07:38:24;;;;;;;;;;;9.40;99.90;;;;;;5023641;28;19914;-61
2024/01/24 07:40:49;;;;;;;;;;;9.40;99.90;;;;;;5023802;28;19959;-61
2024/01/24 07:43:15;;;;;;;;;;;9.40;99.90;;;;;;5024353;28;19914;-61
2024/01/24 07:45:41;;;;;;;;;;;9.40;99.90;;;;;;5023705;28;19925;-61
2024/01/24 07:48:07;;;;;;;;;;;9.40;99.90;;;;;;5023717;28;19909;-62
2024/01/24 07:50:33;;;;;;;;;;;9.40;99.90;;;;;;5023215;28;20252;-61
2024/01/24 07:52:58;;;;;;;;;;;9.30;99.90;;;;;;5024134;28;19939;-62
2024/01/24 07:55:24;;;;;;;;;;;9.30;99.90;;;;;;5023626;28;19913;-62
2024/01/24 07:57:49;;;;;;;;;;;9.30;99.90;;;;;;5024214;28;19920;-62
2024/01/24 08:00:18;;;;;;;;;;;9.30;99.90;;;;;;5005956;28;20473;-61
2024/01/24 08:02:44;;;;;;;;;;;9.30;99.90;;;;;;5022568;28;19920;-62
2024/01/24 08:05:12;;;;;;;;;;;9.30;99.90;;;;;;5005796;28;19913;-61
2024/01/24 08:07:40;;;;;;;;;;;9.30;99.90;;;;;;5005595;28;19916;-62
2024/01/24 08:10:05;;;;;;;;;;;9.30;99.90;;;;;;5023573;28;20604;-62
2024/01/24 08:12:31;;;;;;;;;;;9.30;99.90;;;;;;5023439;28;19920;-61
2024/01/24 08:14:56;;;;;;;;;;;9.30;99.90;;;;;;5023555;28;19949;-61
2024/01/24 08:17:22;;;;;;;;;;;9.30;99.90;;;;;;5023380;28;20254;-61
2024/01/24 08:19:48;;;;;;;;;;;9.30;99.90;;;;;;5023086;28;19917;-61
2024/01/24 08:22:14;;;;;;;;;;;9.30;99.90;;;;;;5023801;28;19969;-61
2024/01/24 08:24:39;;;;;;;;;;;9.20;99.90;;;;;;5005331;28;20349;-61
2024/01/24 08:27:05;;;;;;;;;;;9.20;99.90;;;;;;5023596;28;20004;-62
2024/01/24 08:29:30;;;;;;;;;;;9.20;99.90;;;;;;5019528;28;20653;-61
2024/01/24 08:31:56;;;;;;;;;;;9.30;99.90;;;;;;5023362;28;20398;-62
2024/01/24 08:34:22;;;;;;;;;;;9.20;99.90;;;;;;5023008;28;19966;-62
2024/01/24 08:36:47;;;;;;;;;;;9.20;99.90;;;;;;5023441;28;20003;-61
2024/01/24 08:39:14;;;;;;;;;;;9.20;99.90;;;;;;5023295;28;19923;-61
2024/01/24 08:41:40;;;;;;;;;;;9.20;99.90;;;;;;5022677;28;20350;-62
2024/01/24 08:44:05;;;;;;;;;;;9.20;99.90;;;;;;5023165;28;19918;-61
2024/01/24 08:46:31;;;;;;;;;;;9.20;99.90;;;;;;5023141;28;20033;-61
2024/01/24 08:48:57;;;;;;;;;;;9.20;99.90;;;;;;5023133;28;19917;-61
2024/01/24 08:51:24;;;;;;;;;;;9.20;99.90;;;;;;5022305;28;19996;-62
2024/01/24 08:53:50;;;;;;;;;;;9.20;99.90;;;;;;5027015;28;20492;-61
2024/01/24 08:56:15;;;;;;;;;;;9.30;99.90;;;;;;5027115;28;19917;-61
2024/01/24 08:58:41;;;;;;;;;;;9.20;99.90;;;;;;5021378;28;19913;-61
2024/01/24 09:01:06;;;;;;;;;;;9.30;99.90;;;;;;5023824;28;19948;-62
2024/01/24 09:03:32;;;;;;;;;;;9.30;99.90;;;;;;5022768;28;19919;-62
2024/01/24 09:05:57;;;;;;;;;;;9.30;99.90;;;;;;5022872;28;19928;-61
2024/01/24 09:08:24;;;;;;;;;;;9.30;99.90;;;;;;5004560;28;19913;-62
2024/01/24 09:10:50;;;;;;;;;;;9.30;99.90;;;;;;5021543;28;19921;-62
2024/01/24 09:13:20;;;;;;;;;;;9.30;99.90;;;;;;5022504;28;19954;-62
2024/01/24 09:15:46;;;;;;;;;;;9.30;99.90;;;;;;5021197;28;19917;-61
2024/01/24 09:18:11;;;;;;;;;;;9.30;99.90;;;;;;5019785;28;19920;-61
2024/01/24 09:20:37;;;;;;;;;;;9.30;99.90;;;;;;5020938;28;19913;-61
2024/01/24 09:23:02;;;;;;;;;;;9.20;99.90;;;;;;5022950;28;19965;-61
2024/01/24 09:25:28;;;;;;;;;;;9.30;99.90;;;;;;5022075;28;19909;-62
2024/01/24 09:27:55;;;;;;;;;;;9.30;99.90;;;;;;5022893;28;19974;-61
2024/01/24 09:30:21;;;;;;;;;;;9.30;99.90;;;;;;5022415;28;20394;-62
2024/01/24 09:32:46;;;;;;;;;;;9.30;99.90;;;;;;5021812;28;19939;-62
2024/01/24 09:35:12;;;;;;;;;;;9.30;99.90;;;;;;5022489;28;19914;-62
2024/01/24 09:37:38;;;;;;;;;;;9.30;99.90;;;;;;5022204;28;19913;-61
2024/01/24 09:40:05;;;;;;;;;;;9.20;99.90;;;;;;5022226;28;19966;-61
2024/01/24 09:42:32;;;;;;;;;;;9.30;99.90;;;;;;5022086;28;19916;-62
2024/01/24 09:44:58;;;;;;;;;;;9.30;99.90;;;;;;5022466;28;19909;-61
2024/01/24 09:47:23;;;;;;;;;;;9.30;99.90;;;;;;5022259;28;19916;-61
2024/01/24 09:49:50;;;;;;;;;;;9.30;99.90;;;;;;5022466;28;19947;-61
2024/01/24 09:52:19;;;;;;;;;;;9.30;99.90;;;;;;5022007;28;19917;-61
2024/01/24 09:54:45;;;;;;;;;;;9.30;99.90;;;;;;5021873;28;19995;-61
2024/01/24 09:57:10;;;;;;;;;;;9.30;99.90;;;;;;5022233;28;19995;-61
2024/01/24 09:59:36;;;;;;;;;;;9.30;99.90;;;;;;5018920;28;20318;-61
2024/01/24 10:02:03;;;;;;;;;;;9.30;99.90;;;;;;5021968;28;19909;-61
2024/01/24 10:04:36;;;;;;;;;;;9.40;99.90;;;;;;5021937;28;19924;-61
2024/01/24 10:07:02;;;;;;;;;;;9.30;99.90;;;;;;5022340;28;19917;-61
2024/01/24 10:09:27;;;;;;;;;;;9.40;99.90;;;;;;5021793;28;20301;-61
2024/01/24 10:11:53;;;;;;;;;;;9.40;99.90;;;;;;5025849;28;19917;-61
2024/01/24 10:14:19;;;;;;;;;;;9.30;99.90;;;;;;5026074;28;20008;-61
2024/01/24 10:16:45;;;;;;;;;;;9.30;99.90;;;;;;5021676;28;19998;-61
2024/01/24 10:19:10;;;;;;;;;;;9.30;99.90;;;;;;5021754;28;19917;-62
2024/01/24 10:21:36;;;;;;;;;;;9.30;99.90;;;;;;5021877;28;19917;-62
2024/01/24 10:24:02;;;;;;;;;;;9.30;99.90;;;;;;5022028;28;19947;-61
2024/01/24 10:26:29;;;;;;;;;;;9.30;99.90;;;;;;5023615;28;20020;-61
2024/01/24 10:28:55;;;;;;;;;;;9.30;99.90;;;;;;5025129;28;19917;-61
2024/01/24 10:31:20;;;;;;;;;;;9.30;99.90;;;;;;5025362;28;19917;-61
2024/01/24 10:33:47;;;;;;;;;;;9.30;99.90;;;;;;5024782;28;19917;-61
2024/01/24 10:36:13;;;;;;;;;;;9.30;99.90;;;;;;5025283;28;19910;-61
2024/01/24 10:38:41;;;;;;;;;;;9.30;99.90;;;;;;5025099;28;19920;-62
2024/01/24 10:41:08;;;;;;;;;;;9.30;99.90;;;;;;5024839;28;20128;-61
2024/01/24 10:43:34;;;;;;;;;;;9.30;99.90;;;;;;5032993;28;20322;-61
2024/01/24 10:46:00;;;;;;;;;;;9.30;99.90;;;;;;5025030;28;19993;-62
2024/01/24 10:48:26;;;;;;;;;;;9.30;99.90;;;;;;5024978;28;19919;-62
2024/01/24 10:50:52;;;;;;;;;;;9.30;99.90;;;;;;5024753;28;19918;-61
2024/01/24 10:53:18;;;;;;;;;;;9.30;99.90;;;;;;5025180;28;19917;-61
2024/01/24 10:55:45;;;;;;;;;;;9.30;99.90;;;;;;5025169;28;20048;-61
2024/01/24 10:58:11;;;;;;;;;;;9.30;99.90;;;;;;5024960;28;20003;-62
2024/01/24 11:00:37;;;;;;;;;;;9.30;99.90;;;;;;5024098;28;20053;-62
2024/01/24 11:03:02;;;;;;;;;;;9.30;99.90;;;;;;5024961;28;20358;-62
2024/01/24 11:05:43;;;;;;;;;;;9.30;99.90;;;;;;5024326;28;19917;-62
2024/01/24 11:08:11;;;;;;;;;;;9.40;99.90;;;;;;5024820;28;19955;-62
2024/01/24 11:10:39;;;;;;;;;;;9.30;99.90;;;;;;5024012;28;19955;-61
2024/01/24 11:13:05;;;;;;;;;;;9.30;99.90;;;;;;5007030;28;19909;-61
2024/01/24 11:15:31;;;;;;;;;;;9.40;99.90;;;;;;5005888;28;19913;-62
2024/01/24 11:18:15;;;;;;;;;;;9.30;99.90;;;;;;5024638;28;19955;-61
2024/01/24 11:20:54;;;;;;;;;;;9.40;99.90;;;;;;5032256;28;19940;-61
2024/01/24 11:23:34;;;;;;;;;;;9.40;99.90;;;;;;5024957;28;20004;-61
2024/01/24 11:25:59;;;;;;;;;;;9.30;99.90;;;;;;5017876;28;19919;-61
2024/01/24 11:28:25;;;;;;;;;;;9.30;99.90;;;;;;5024132;28;19913;-62
2024/01/24 11:30:50;;;;;;;;;;;9.40;99.90;;;;;;5006568;28;19965;-62
2024/01/24 11:33:19;;;;;;;;;;;9.40;99.90;;;;;;5024341;28;19917;-61
2024/01/24 11:35:45;;;;;;;;;;;9.30;99.90;;;;;;5023923;28;19917;-61
2024/01/24 11:38:19;;;;;;;;;;;9.40;99.90;;;;;;5023184;28;19913;-61
2024/01/24 11:40:44;;;;;;;;;;;9.40;99.90;;;;;;5023642;28;20353;-61
2024/01/24 11:43:23;;;;;;;;;;;9.40;99.90;;;;;;5024386;28;19910;-61
2024/01/24 11:45:52;;;;;;;;;;;9.40;99.90;;;;;;5005801;28;20004;-62
2024/01/24 11:48:18;;;;;;;;;;;9.40;99.90;;;;;;5006365;28;19913;-61
2024/01/24 11:50:46;;;;;;;;;;;9.30;99.90;;;;;;5023561;28;20271;-61
2024/01/24 11:53:11;;;;;;;;;;;9.40;99.90;;;;;;5024040;28;19944;-62
2024/01/24 11:55:37;;;;;;;;;;;9.40;99.90;;;;;;5023516;28;19909;-61
2024/01/24 11:58:04;;;;;;;;;;;9.40;99.90;;;;;;5024157;28;19909;-61
2024/01/24 12:00:30;;;;;;;;;;;9.40;99.90;;;;;;5023488;28;19917;-62
2024/01/24 12:02:55;;;;;;;;;;;9.40;99.90;;;;;;5013283;28;19913;-62
2024/01/24 12:05:21;;;;;;;;;;;9.40;99.90;;;;;;5023869;28;19917;-62
2024/01/24 12:07:47;;;;;;;;;;;9.40;99.90;;;;;;5031861;28;20013;-62
2024/01/24 12:10:12;;;;;;;;;;;9.40;99.90;;;;;;5023661;28;19909;-61
2024/01/24 12:12:39;;;;;;;;;;;9.40;99.90;;;;;;5023515;28;19920;-61
2024/01/24 12:15:05;;;;;;;;;;;9.40;99.90;;;;;;5029067;28;19935;-61
2024/01/24 12:17:33;;;;;;;;;;;9.40;99.90;;;;;;5026147;28;20403;-61
2024/01/24 12:19:59;;;;;;;;;;;9.40;99.90;;;;;;5023273;28;19919;-61
2024/01/24 12:22:24;;;;;;;;;;;9.40;99.90;;;;;;5023958;28;19912;-62
2024/01/24 12:24:50;;;;;;;;;;;9.40;99.90;;;;;;5015440;28;19917;-61
2024/01/24 12:27:15;;;;;;;;;;;9.40;99.90;;;;;;5030731;28;19917;-61
2024/01/24 12:29:41;;;;;;;;;;;9.40;99.90;;;;;;5024256;28;20556;-61
2024/01/24 12:32:08;;;;;;;;;;;9.40;99.90;;;;;;5023062;28;19913;-61
2024/01/24 12:34:34;;;;;;;;;;;9.40;99.90;;;;;;5023093;28;20008;-62
2024/01/24 12:37:00;;;;;;;;;;;9.40;99.90;;;;;;5023415;28;20085;-61
2024/01/24 12:39:26;;;;;;;;;;;9.40;99.90;;;;;;5023033;28;19957;-61
2024/01/24 12:41:52;;;;;;;;;;;9.40;99.90;;;;;;5023013;28;19913;-61
2024/01/24 12:44:17;;;;;;;;;;;9.50;99.90;;;;;;5023526;28;20003;-62
2024/01/24 12:46:43;;;;;;;;;;;9.50;99.90;;;;;;5022875;28;19997;-61
2024/01/24 12:49:08;;;;;;;;;;;9.50;99.90;;;;;;5030831;28;20314;-61
2024/01/24 12:51:37;;;;;;;;;;;9.50;99.90;;;;;;5022301;28;20020;-61
2024/01/24 12:54:03;;;;;;;;;;;9.60;99.90;;;;;;5023165;28;20253;-61
2024/01/24 12:56:28;;;;;;;;;;;9.50;99.90;;;;;;5022570;28;19909;-61
2024/01/24 12:58:55;;;;;;;;;;;9.60;99.90;;;;;;5030922;28;19921;-61
2024/01/24 13:01:21;;;;;;;;;;;9.50;99.90;;;;;;5049852;28;20050;-61
2024/01/24 13:03:46;;;;;;;;;;;9.50;99.90;;;;;;5025273;28;19960;-61
2024/01/24 13:06:12;;;;;;;;;;;9.50;99.90;;;;;;5026082;28;19923;-61
2024/01/24 13:08:37;;;;;;;;;;;9.50;99.90;;;;;;5030328;28;19962;-62
2024/01/24 13:11:03;;;;;;;;;;;9.50;99.90;;;;;;5022575;28;19967;-62
2024/01/24 13:13:29;;;;;;;;;;;9.50;99.90;;;;;;5012810;28;19909;-61
2024/01/24 13:15:57;;;;;;;;;;;9.50;99.90;;;;;;5023044;28;19913;-61
2024/01/24 13:18:22;;;;;;;;;;;9.60;99.90;;;;;;5022689;28;20599;-61
2024/01/24 13:20:48;;;;;;;;;;;9.50;99.90;;;;;;5021926;28;20007;-61
2024/01/24 13:23:13;;;;;;;;;;;9.60;99.90;;;;;;5023171;28;19920;-61
2024/01/24 13:25:39;;;;;;;;;;;9.60;99.90;;;;;;5022318;28;20361;-61
2024/01/24 13:28:05;;;;;;;;;;;9.60;99.90;;;;;;5022770;28;20381;-61
2024/01/24 13:30:32;;;;;;;;;;;9.50;99.90;;;;;;5022264;28;19921;-61
2024/01/24 13:32:57;;;;;;;;;;;9.50;99.90;;;;;;5026653;28;20477;-61
2024/01/24 13:35:23;;;;;;;;;;;9.50;99.90;;;;;;5022774;28;19992;-61
2024/01/24 13:37:48;;;;;;;;;;;9.50;99.90;;;;;;5022395;28;20729;-62
2024/01/24 13:40:14;;;;;;;;;;;9.50;99.90;;;;;;5022522;28;20012;-61
2024/01/24 13:42:39;;;;;;;;;;;9.50;99.90;;;;;;5022190;28;19966;-61
2024/01/24 13:45:05;;;;;;;;;;;9.50;99.90;;;;;;5022731;28;20016;-62
2024/01/24 13:47:31;;;;;;;;;;;9.40;99.90;;;;;;5022397;28;19920;-62
2024/01/24 13:49:56;;;;;;;;;;;9.50;99.90;;;;;;5022577;28;19913;-61
2024/01/24 13:52:22;;;;;;;;;;;9.40;99.90;;;;;;5022344;28;20431;-61
2024/01/24 13:54:47;;;;;;;;;;;9.40;99.90;;;;;;5030399;28;19965;-61
2024/01/24 13:57:13;;;;;;;;;;;9.40;99.90;;;;;;5022699;28;19909;-62
2024/01/24 13:59:38;;;;;;;;;;;9.40;99.90;;;;;;5022005;28;19968;-62
2024/01/24 14:02:04;;;;;;;;;;;9.40;99.90;;;;;;5025191;28;20456;-62
2024/01/24 14:04:29;;;;;;;;;;;9.40;99.90;;;;;;5033890;28;19917;-61
2024/01/24 14:06:55;;;;;;;;;;;9.40;99.90;;;;;;5021942;28;19929;-61
2024/01/24 14:09:20;;;;;;;;;;;9.40;99.90;;;;;;5056764;27;19954;-61
2024/01/24 14:11:47;;;;;;;;;;;9.40;99.90;;;;;;5019236;28;21238;-61
2024/01/24 14:14:13;;;;;;;;;;;9.40;99.90;;;;;;5040314;27;19965;-61
2024/01/24 14:16:38;;;;;;;;;;;9.30;99.90;;;;;;5031338;28;19909;-61
2024/01/24 14:19:03;;;;;;;;;;;9.30;99.90;;;;;;5029659;28;19940;-62
2024/01/24 14:21:29;;;;;;;;;;;9.30;99.90;;;;;;5023851;28;19922;-62
2024/01/24 14:23:56;;;;;;;;;;;9.30;99.90;;;;;;5024459;28;20385;-61